III YDP Aquathlon Rumia 2013 – Znakomite wejście w sezon

Ponad 120 zawodniczek i zawodników sportowców z 17 klubów i 4 województw rywalizowało kilka dni temu (27 kwietnia) w trzeciej edycji zawodów Young Digital Planet Aquathlon Rumia 2013. Aquathlon składa się z dwóch konkurencji: pływania i biegu. Uczestników podzielono na 9 kategorii . Oczywiście dystanse dostosowano do możliwości. Rozpiętość wiekowa była ogromna od 8 do 62 lat. Nie zabrakło akcentów warmińsko-mazurskich. W najbardziej prestiżowym wyścigu Sebastian Najmowicz (WMKS Olsztyn) zajął 4 miejsce (3 w M-20).

 

W kategorii M 40 znakomicie poradził sobie Jacek Lendzian z AKM Olimp Olsztyn – pierwszy w kategorii, a dziesiąty w wyścigu open (600 m + 3 km). W rywalizacji M-14 znakomicie wypadł Michał Jarliński z Orki Iława – druga lokata.

Zawodnicy walczyli na znakomicie przygotowanej trasie rumskiego Ośrodka Sportu i Rekreacji, a ponieważ pogoda dopisała, wejście w sezon było doskonałe.

V wyścig (pływanie :1000m + Bieg: 5km) 

1 Mateusz Rak 1990 M20 UKS Tri-Saucony Rumia (27:57) (11:27) (16:24) 00:00 (1)

2 Kacper Stępniak 1994 M18 UKS Tri-Saucony Rumia (28:02) (11:43) (16:19) strata 00:11 (1)

3 Adam Głogowski 1993 M 20 AZS Katowice (28:14) (11:43) (16:31) 00:23 (2)

4 Sebastian Najmowicz 1991 M20 Warmińsko-Mazurski KS Olsztyn (29:20) (11:42) (17:38) 01:29 (3)

5 Michał Sierakowski 1979 M Kwidzyńskie Towarzystwo Ironman (29:49) (13:16) (16:33) 01:58

6 Rafał Suchodolski 1995 M 18 WLKS Kmicic Częstochowa (29:56) (12:15) (17:41) 02:05 (2)

7 Paweł Naumowicz 1993 M20 Warmińsko-Mazurski KS (30:13) (12:44) (17:29) 02:22(4)

8 Tomasz Spaleniak 1990 M20 UKS Tri-Saucony Rumia (32:31) (15:38) (16:53) 04:40 (5)

9 Jakub Lemański 1992 M20 UKS Tri-Saucony Rumia (32:33) (16:01) (16:32) 04:42 (6)

10 Jarosław Gawlik 1992 M20 Alice Swim Gdynia (33:21) (13:26) (19:55) 05:30 (7)

………………………………………………………………………………………………

14 Dawid Łach 1988 M Warmińsko-Mazurski KS Olsztyn (34:56) (13:31) (21:25) 07:05

IV wyścig (pływanie :600m + Bieg: 3km)

1 Mateusz Konopka 1997 M 16 Delfin Gdynia (18:16) (06:35) (11:41) 00:00 (1)

2 Wojciech Łagownik 1996 M16 UKS Dwójka Morena Gdańsk (18:37) 08:26 10:11strata 00:21 (2)

3 Wojciech Janicki 1996 M 16 MTS Kwidzyn (19:18) (07:12) (12:06) 01:02 (3)

4 Piotr Kurkowski 1997 M 16 MTS Kwidzyn (19:30) (07:17) (12:13) 01:14 (4)

5 Julia Goc 1997 K 16 KT Sportowe Ironman Kwidzyn (20:14) (08:01) (12:13) 01:58 (1) (1)

6 Grzegorz Sielicki 1996 M 16 UKS Tri-Saucony Rumia (20:37) (08:29) (12:08) 02:21 (5)

7 Krzysztof Kępiński 1979 M UKS TRS Susz (20:51) 09:51 11:00 02:35

8 Radosław Szatrowski 1985 M Niestowarzyszony Gdynia (20:53) (08:19) (12:34) 02:37

9 Mateusz Kudyk 1996 M 16 Orka Iława (21:20) (10:20) (11:00) 03:04 (6)

10 Jacek Lendzian 1973 M+40 AKM Olimp Olsztyn   (21:28) (09:42) (11:46) (03:12) (1)

……………………………………………………………..

12 Stefan Tomczyk 1973 M+40 UKS TRS Susz (21:45) (09:49) (11:56) 03:29 (2)

14 Maciek Reut 1997 M 16 Orka Iława (23:33) (09:53) (13:40) 05:17 (8)

17 Natalia Nikiel 1997 K 16 UKS TRS Susz (24:28) (10:25) (14:03) 06:12 (4) (5)

24 Rafał Jarliński 1965 M+40 Orka Iława (28:10) (11:29) (16:41) 09:54 (4)

III wyścig (Pływanie :400m + Bieg: 2km)

1 Wacław Kryszak 1998 M14 UKS Mewa Władysławowo (13:08) (05:34) (07:34) 00:00

2 Michał Jarliński 1999  M14 Orka Iława (13:23) (05:46) (07:37) strata 00:15

3 Karolina Jaworska 1999 K 14MTS Kwidzyn (13:28) (05:17) (08:11) 00:20 (1)

4 Maciej Huryn 1998 M14 UKS Mewa Władysławowo (13:34) (05:45) (07:49) 00:26

5 Kamil Muża 1998 M14 UKS Mewa Władysławowo (13:35) (05:13) (08:22) 00:27

6 Nicola Warszawska 1998 K14 Niestowarzyszona Gdynia (13:53) (05:04) (08:49) 00:45 (2)

7 Maciej Karczmarczyk               1998 M14 Niestowarzyszony Rumia (13:57) (06:31) (07:26) 00:49

8 Aleksandra Machalewska 1999 K 14 MTS Kwidzyn (14:01) (05:33) (08:28) 00:53 (3)

9 Przemek Bodeński 1998 M14 UKS Tri-Saucony Rumia (14:17) (06:19) (07:58) 01:09

10 Magda Klonowska 1999 K14 UKS Dwójka Morena Gdańsk (14:19) 05:46 08:33 01:11 (4)

…………………………………………………………………………………….

12 Patryk Cichowski 1998 M14 Orka Iława (14:43) (06:30) (08:13) 01:35

14 Michał Banach 1998 M14 Orka Iława (15:20) (06:15) (09:05) 02:12

15 Jakub Zientarski 1999 M14 Orka Iława (15:52) (06:29) (09:23)    02:44

16 Maciek Olszewski 1998 M14 Orka Iława (16:34) (06:41) (09:53) 03:26

17 Magda Jackowska 1998 K14 Orka Iława (17:22) (07:49) (09:33) 04:14 (6)

II wyścig (pływanie :200m + Bieg: 1km)

1 Julia Plackowska 2000 K12 MKS Delfin Malbork (06:45) (02:37) (04:08) 00:00 (1)

2 Szymon Romaniec 2000 M 12 Delfin Gdynia (06:48) (02:39) (04:09) strata     00:03  (1)

3 Alicja Krauze 2000 K12 MKS Delfin Malbork (06:50) (02:31) (04:19) 00:05 (2)

4 Szymon Dzik 2000 M12 Orka Iława (07:03) (02:55) (04:08)    00:18 (2)

5 Wiktoria Saczko 2002 K10 UKS Mewa Władysławowo (07:23) (03:05) (04:18) 00:38 (1)

6 Klaudia Jeka 2002  K10 UKS Mewa Władysławowo (07:51) (03:27) (04:24) 01:06     (2)

7 Paweł Kuliński 2002 M 10 Alice Swim Gdynia (07:53) (03:40) (04:13) 01:08 (1)

8 Jakub Bogusiewicz 2003  M 10 Orka Iława (07:54) (03:31) (04:23) 01:09 (2   )

9 Kacper Tartanu 2002 M 10 UKS Mewa Władysławowo (08:05) (03:39) (04:26) 01:20 (3)

10 Julia Sentak 2000 K 12 UKS Mewa Władysławowo (08:06) (03:35) (04:31) 01:21 (3)

Fot. akademia triathlonu

!!!

Chcesz wesprzeć portal WAMA-SPORT?

Jeśli chcesz pomóc nam w prowadzeniu portalu, zachęcamy do wsparcia nas na Patronite! Już 3zł miesięcznie jest dla nas znaczącą kwotą!

To zajmie tylko chwilę! Transakcji możesz dokonać przez przelew bankowy, BLIK lub PayPal!

Komentarze

Subskrybuj
Powiadom o
guest
0 komentarzy
Inline Feedbacks
View all comments

Wspierają nas

Ośrodek Sportu i Rekreacji Olsztyn

Warmińsko-Mazurskie Zrzeszenie Ludowych Zespołów Sportowych

Urząd Marszałkowski Województwa Warmińsko-Mazurskiego

0
Chcielibyśmy poznać Twoją opinię! Skomentuj artykuł!x